UAE1 OMDB-EGLL
Flight info
| Callsign | UAE1 |
|---|---|
| Flight time | N/A |
| Altitude | 36000 |
| Route | SENPA N571 ALPOB L768 ULADA Q143 MEDGO N697 HIL A788 HLF L604 WEJ/N0502F380 L677 CVO L617 NOZ L551 ANTAR UN133 KPC DCT FSK DCT DISOR DCT LONTA UL608 DOLEV DCT BOSNA/N0484F400 DCT MARIL DCT OKSIG DCT KUSIB DCT GORPA DCT DOL DCT NIPEL DCT ERKIR DCT BABEG DCT LIRSU DCT ARCKY DCT BUB L608 LOGAN |
| Aircraft | A388/J-SADE2E3FGHIJ3J4J5M1RWXY/LB1D1 |
Departure
| Time | 2026-04-26 10:16 |
|---|---|
| Airport | Dubai International Airport (OMDB) |
Arrival
| Time | N/A |
|---|---|
| Airport | London Heathrow Airport (EGLL) |
| Time | Latitude | Longitude | Altitude | Speed | Heading |
|---|---|---|---|---|---|
| 2026-04-26 09:30 | 25.24217 | 55.37593 | 16 ft | 0 kts | 248° |
| 2026-04-26 10:05 | 25.24223 | 55.37612 | 18 ft | 4 kts | 251° |
| 2026-04-26 10:05 | 25.24233 | 55.37643 | 21 ft | 4 kts | 255° |
| 2026-04-26 10:06 | 25.24234 | 55.37669 | 21 ft | 5 kts | 273° |
| 2026-04-26 10:06 | 25.24219 | 55.37703 | 20 ft | 5 kts | 316° |
| 2026-04-26 10:06 | 25.24185 | 55.37713 | 22 ft | 5 kts | 6° |
| 2026-04-26 10:06 | 25.24157 | 55.37698 | 22 ft | 0 kts | 31° |
| 2026-04-26 10:10 | 25.24157 | 55.37699 | 17 ft | 1 kts | 31° |
| 2026-04-26 10:10 | 25.24210 | 55.37734 | 17 ft | 14 kts | 31° |
| 2026-04-26 10:10 | 25.24293 | 55.37789 | 17 ft | 14 kts | 31° |
| 2026-04-26 10:11 | 25.24349 | 55.37830 | 17 ft | 0 kts | 34° |
| 2026-04-26 10:11 | 25.24350 | 55.37831 | 17 ft | 1 kts | 34° |
| 2026-04-26 10:11 | 25.24373 | 55.37848 | 17 ft | 7 kts | 34° |
| 2026-04-26 10:12 | 25.24427 | 55.37889 | 17 ft | 12 kts | 34° |
| 2026-04-26 10:12 | 25.24507 | 55.37950 | 17 ft | 15 kts | 34° |
| 2026-04-26 10:12 | 25.24596 | 55.38017 | 17 ft | 15 kts | 34° |
| 2026-04-26 10:12 | 25.24631 | 55.38044 | 17 ft | 0 kts | 32° |
| 2026-04-26 10:13 | 25.24636 | 55.38047 | 17 ft | 3 kts | 32° |
| 2026-04-26 10:14 | 25.24696 | 55.38086 | 17 ft | 14 kts | 31° |
| 2026-04-26 10:14 | 25.24776 | 55.38081 | 17 ft | 11 kts | 315° |
| 2026-04-26 10:14 | 25.24788 | 55.38064 | 17 ft | 0 kts | 303° |
| 2026-04-26 10:15 | 25.24865 | 55.37926 | 16 ft | 56 kts | 302° |
| 2026-04-26 10:15 | 25.25189 | 55.37341 | 15 ft | 119 kts | 301° |
| 2026-04-26 10:15 | 25.25696 | 55.36420 | 16 ft | 158 kts | 302° |
| 2026-04-26 10:15 | 25.26298 | 55.35340 | 325 ft | 161 kts | 303° |
| 2026-04-26 10:16 | 25.26863 | 55.34291 | 878 ft | 158 kts | 303° |
| 2026-04-26 10:16 | 25.27430 | 55.33216 | 1279 ft | 165 kts | 300° |
| 2026-04-26 10:16 | 25.27998 | 55.32097 | 1679 ft | 174 kts | 301° |
| 2026-04-26 10:16 | 25.28652 | 55.30917 | 2039 ft | 182 kts | 304° |
| 2026-04-26 10:17 | 25.29314 | 55.29727 | 2557 ft | 186 kts | 296° |
| 2026-04-26 10:17 | 25.29668 | 55.28338 | 3071 ft | 187 kts | 279° |
| 2026-04-26 10:17 | 25.29744 | 55.27191 | 3242 ft | 194 kts | 276° |
| 2026-04-26 10:17 | 25.29852 | 55.25664 | 3368 ft | 202 kts | 277° |
| 2026-04-26 10:18 | 25.29975 | 55.24106 | 3619 ft | 203 kts | 277° |
| 2026-04-26 10:18 | 25.30100 | 55.22540 | 3776 ft | 209 kts | 277° |
| 2026-04-26 10:18 | 25.30233 | 55.20908 | 3841 ft | 217 kts | 277° |
| 2026-04-26 10:18 | 25.30368 | 55.19228 | 3899 ft | 223 kts | 276° |
| 2026-04-26 10:19 | 25.30377 | 55.17498 | 3942 ft | 229 kts | 265° |
| 2026-04-26 10:19 | 25.30215 | 55.15666 | 3996 ft | 251 kts | 266° |
| 2026-04-26 10:19 | 25.30057 | 55.13673 | 4032 ft | 269 kts | 266° |
| 2026-04-26 10:19 | 25.29897 | 55.11588 | 4588 ft | 272 kts | 266° |
| 2026-04-26 10:20 | 25.29738 | 55.09512 | 5285 ft | 271 kts | 266° |
| 2026-04-26 10:20 | 25.29633 | 55.08139 | 5738 ft | 272 kts | 266° |
| 2026-04-26 10:20 | 25.29419 | 55.05345 | 6595 ft | 274 kts | 266° |
| 2026-04-26 10:20 | 25.29256 | 55.03239 | 7226 ft | 276 kts | 265° |
| 2026-04-26 10:21 | 25.29092 | 55.01117 | 7858 ft | 278 kts | 265° |
| 2026-04-26 10:21 | 25.28929 | 54.99012 | 8966 ft | 278 kts | 265° |
| 2026-04-26 10:21 | 25.28767 | 54.96935 | 9749 ft | 278 kts | 266° |
| 2026-04-26 10:21 | 25.28599 | 54.94773 | 10463 ft | 281 kts | 266° |
| 2026-04-26 10:22 | 25.28472 | 54.92580 | 10687 ft | 300 kts | 269° |
| 2026-04-26 10:22 | 25.28419 | 54.90205 | 10834 ft | 320 kts | 261° |
| 2026-04-26 10:22 | 25.28362 | 54.87670 | 10914 ft | 340 kts | 260° |
| 2026-04-26 10:22 | 25.28287 | 54.84986 | 11121 ft | 357 kts | 260° |
| 2026-04-26 10:23 | 25.28209 | 54.82184 | 11332 ft | 373 kts | 261° |
| 2026-04-26 10:23 | 25.28127 | 54.79260 | 11561 ft | 389 kts | 262° |
| 2026-04-26 10:23 | 25.28065 | 54.76208 | 11772 ft | 406 kts | 269° |
| 2026-04-26 10:23 | 25.28389 | 54.73022 | 11713 ft | 433 kts | 280° |
| 2026-04-26 10:24 | 25.29224 | 54.69665 | 11539 ft | 466 kts | 281° |
| 2026-04-26 10:24 | 25.30148 | 54.66155 | 11733 ft | 482 kts | 285° |
| 2026-04-26 10:24 | 25.31439 | 54.61172 | 12328 ft | 493 kts | 289° |
| 2026-04-26 10:24 | 25.33209 | 54.54221 | 14739 ft | 450 kts | 271° |
| 2026-04-26 10:25 | 25.34022 | 54.51128 | 17476 ft | 384 kts | 281° |
| 2026-04-26 10:25 | 25.34745 | 54.48443 | 18888 ft | 357 kts | 284° |
| 2026-04-26 10:25 | 25.36919 | 54.40334 | 20580 ft | 351 kts | 285° |
| 2026-04-26 10:25 | 25.38516 | 54.34402 | 21369 ft | 360 kts | 285° |
| 2026-04-26 10:26 | 25.39958 | 54.29046 | 22031 ft | 368 kts | 285° |
| 2026-04-26 10:26 | 25.41384 | 54.23515 | 22432 ft | 387 kts | 289° |
| 2026-04-26 10:26 | 25.43085 | 54.16637 | 22317 ft | 426 kts | 288° |
| 2026-04-26 10:26 | 25.44829 | 54.09579 | 22599 ft | 450 kts | 288° |
| 2026-04-26 10:27 | 25.47071 | 54.00277 | 22937 ft | 478 kts | 287° |
| 2026-04-26 10:27 | 25.48810 | 53.93016 | 23189 ft | 498 kts | 287° |
| 2026-04-26 10:27 | 25.50616 | 53.85480 | 23618 ft | 510 kts | 286° |
| 2026-04-26 10:27 | 25.52433 | 53.77880 | 24473 ft | 511 kts | 286° |
| 2026-04-26 10:28 | 25.54254 | 53.70258 | 25268 ft | 513 kts | 286° |